Time;durP1;ratioP1;P1;durP2;ratioP2;P2;SDS_P1;SDS_P2;PMS_P1;PMS_P2;Temp;Humidity;BMP_temperature;BMP_pressure;BME280_temperature;BME280_humidity;BME280_pressure;Samples;Min_cycle;Max_cycle;Signal;HPM_P1;HPM_P2
2022/05/15 00:02:32;;;;;;;6.82;2.70;;;;;;;;;;5062347;28;20073;-54
2022/05/15 00:04:58;;;;;;;5.32;2.70;;;;;;;;;;5043919;28;20037;-54
2022/05/15 00:07:24;;;;;;;6.38;3.10;;;;;;;;;;5056391;28;20530;-54
2022/05/15 00:09:50;;;;;;;6.82;3.28;;;;;;;;;;5052263;28;20029;-53
2022/05/15 00:12:16;;;;;;;7.78;3.22;;;;;;;;;;5052656;28;20103;-54
2022/05/15 00:14:42;;;;;;;9.27;2.70;;;;;;;;;;5053489;28;20028;-54
2022/05/15 00:17:08;;;;;;;9.10;3.50;;;;;;;;;;5059845;28;20033;-55
2022/05/15 00:19:34;;;;;;;10.23;3.05;;;;;;;;;;5056984;28;20434;-53
2022/05/15 00:22:00;;;;;;;9.68;3.60;;;;;;;;;;5047455;28;20113;-53
2022/05/15 00:24:30;;;;;;;8.05;2.88;;;;;;;;;;5059660;28;20036;-54
2022/05/15 00:26:56;;;;;;;6.70;2.95;;;;;;;;;;5043362;28;20033;-53
2022/05/15 00:29:22;;;;;;;9.20;3.20;;;;;;;;;;5051403;28;20074;-54
2022/05/15 00:31:48;;;;;;;5.72;2.83;;;;;;;;;;5057492;28;20128;-55
2022/05/15 00:34:14;;;;;;;6.05;3.10;;;;;;;;;;5047366;28;20029;-54
2022/05/15 00:36:40;;;;;;;9.45;3.10;;;;;;;;;;5053971;28;20063;-54
2022/05/15 00:39:06;;;;;;;8.63;3.08;;;;;;;;;;5056763;28;20555;-55
2022/05/15 00:41:33;;;;;;;11.52;2.80;;;;;;;;;;5057198;28;20525;-52
2022/05/15 00:43:59;;;;;;;10.63;3.63;;;;;;;;;;5062610;28;20103;-54
2022/05/15 00:46:28;;;;;;;8.48;3.70;;;;;;;;;;5043875;28;20021;-52
2022/05/15 00:48:54;;;;;;;6.07;2.85;;;;;;;;;;5078408;28;20029;-53
2022/05/15 00:51:43;;;;;;;7.97;2.85;;;;;;;;;;5053244;28;20101;-51
2022/05/15 00:54:22;;;;;;;7.25;3.42;;;;;;;;;;5058522;28;20041;-54
2022/05/15 00:56:57;;;;;;;4.82;2.72;;;;;;;;;;5038820;28;20045;-53
2022/05/15 00:59:25;;;;;;;5.93;2.53;;;;;;;;;;5041855;28;20030;-53
2022/05/15 01:01:51;;;;;;;4.90;2.67;;;;;;;;;;5045282;28;20387;-52
2022/05/15 01:04:17;;;;;;;5.18;2.67;;;;;;;;;;5055704;28;20025;-52
2022/05/15 01:06:43;;;;;;;4.68;2.70;;;;;;;;;;5052454;28;20094;-54
2022/05/15 01:09:10;;;;;;;11.70;3.25;;;;;;;;;;5042362;28;20563;-52
2022/05/15 01:11:37;;;;;;;4.90;2.67;;;;;;;;;;5046434;28;20393;-52
2022/05/15 01:14:05;;;;;;;12.10;3.75;;;;;;;;;;5053562;28;20688;-53
2022/05/15 01:16:32;;;;;;;6.55;2.72;;;;;;;;;;5056543;28;20548;-53
2022/05/15 01:18:58;;;;;;;7.03;3.00;;;;;;;;;;5041064;28;20028;-51
2022/05/15 01:21:33;;;;;;;7.15;2.78;;;;;;;;;;5045823;28;20025;-53
2022/05/15 01:24:00;;;;;;;7.57;2.83;;;;;;;;;;5059579;28;20103;-51
2022/05/15 01:26:27;;;;;;;5.43;2.70;;;;;;;;;;5050627;28;20027;-52
2022/05/15 01:28:53;;;;;;;8.32;3.03;;;;;;;;;;5057834;28;20112;-53
2022/05/15 01:31:20;;;;;;;3.65;2.80;;;;;;;;;;5052644;28;20035;-53
2022/05/15 01:33:47;;;;;;;7.28;3.08;;;;;;;;;;5051047;28;20483;-52
2022/05/15 01:36:13;;;;;;;5.88;2.35;;;;;;;;;;5042374;28;20028;-53
2022/05/15 01:38:39;;;;;;;7.60;2.72;;;;;;;;;;5060382;28;20039;-54
2022/05/15 01:41:07;;;;;;;7.43;2.97;;;;;;;;;;5050829;28;20028;-51
2022/05/15 01:43:33;;;;;;;7.50;3.00;;;;;;;;;;5048559;28;20409;-51
2022/05/15 01:45:59;;;;;;;4.75;2.63;;;;;;;;;;5053040;28;20086;-55
2022/05/15 01:48:25;;;;;;;4.10;2.75;;;;;;;;;;5046211;28;20076;-53
2022/05/15 01:50:51;;;;;;;5.45;2.28;;;;;;;;;;5047634;28;20041;-54
2022/05/15 01:53:17;;;;;;;10.27;3.58;;;;;;;;;;5047537;28;20052;-52
2022/05/15 01:55:43;;;;;;;12.65;2.97;;;;;;;;;;5047604;28;20024;-53
2022/05/15 01:58:10;;;;;;;9.10;3.53;;;;;;;;;;5052439;28;20044;-50
2022/05/15 02:00:37;;;;;;;6.75;2.70;;;;;;;;;;5040776;28;20039;-52
2022/05/15 02:03:03;;;;;;;7.25;3.13;;;;;;;;;;5037317;28;20116;-52
2022/05/15 02:05:29;;;;;;;6.15;2.92;;;;;;;;;;5045225;28;21455;-51
2022/05/15 02:07:54;;;;;;;7.68;2.97;;;;;;;;;;5039827;28;20037;-52
2022/05/15 02:10:21;;;;;;;7.97;2.85;;;;;;;;;;5046675;28;20036;-52
2022/05/15 02:12:47;;;;;;;4.40;2.78;;;;;;;;;;5054252;28;20040;-53
2022/05/15 02:15:13;;;;;;;9.00;3.45;;;;;;;;;;5054729;28;20079;-51
2022/05/15 02:17:40;;;;;;;5.05;2.35;;;;;;;;;;5046625;28;20033;-54
2022/05/15 02:20:07;;;;;;;7.95;3.08;;;;;;;;;;5057764;28;20055;-52
2022/05/15 02:22:33;;;;;;;6.10;3.22;;;;;;;;;;5059005;28;20082;-53
2022/05/15 02:24:59;;;;;;;4.78;2.85;;;;;;;;;;5042426;28;20089;-52
2022/05/15 02:27:26;;;;;;;8.85;2.97;;;;;;;;;;5053317;28;20151;-52
2022/05/15 02:29:52;;;;;;;6.60;2.78;;;;;;;;;;5039224;28;20048;-53
2022/05/15 02:32:18;;;;;;;12.15;3.60;;;;;;;;;;5040635;28;20440;-53
2022/05/15 02:34:44;;;;;;;6.90;3.10;;;;;;;;;;5046886;28;20429;-53
2022/05/15 02:37:10;;;;;;;8.90;3.40;;;;;;;;;;5049487;28;20021;-53
2022/05/15 02:39:36;;;;;;;9.20;3.28;;;;;;;;;;5046271;28;20037;-52
2022/05/15 02:42:02;;;;;;;6.25;3.60;;;;;;;;;;5050317;28;20053;-52
2022/05/15 02:44:29;;;;;;;9.00;3.05;;;;;;;;;;5036882;28;20147;-52
2022/05/15 02:46:55;;;;;;;9.20;2.83;;;;;;;;;;5055261;28;20060;-53
2022/05/15 02:52:08;;;;;;;8.68;3.25;;;;;;;;;;5039513;28;20052;-51
2022/05/15 02:54:34;;;;;;;7.22;3.47;;;;;;;;;;5043070;28;20021;-51
2022/05/15 02:57:02;;;;;;;4.38;2.83;;;;;;;;;;5039084;28;20032;-54
2022/05/15 02:59:28;;;;;;;4.38;3.10;;;;;;;;;;5041903;28;20029;-54
2022/05/15 03:01:54;;;;;;;5.00;3.00;;;;;;;;;;5053846;28;20028;-53
2022/05/15 03:04:20;;;;;;;8.27;3.30;;;;;;;;;;5053225;28;20033;-53
2022/05/15 03:06:46;;;;;;;5.20;3.53;;;;;;;;;;5038431;28;20461;-52
2022/05/15 03:09:12;;;;;;;9.20;3.33;;;;;;;;;;5033846;28;20083;-52
2022/05/15 03:11:38;;;;;;;6.20;3.20;;;;;;;;;;5044041;28;20472;-53
2022/05/15 03:14:04;;;;;;;3.78;2.55;;;;;;;;;;5040561;28;20057;-54
2022/05/15 03:16:31;;;;;;;7.32;3.35;;;;;;;;;;5045223;28;20036;-53
2022/05/15 03:18:57;;;;;;;7.57;3.20;;;;;;;;;;5053751;28;20028;-49
2022/05/15 03:21:29;;;;;;;5.55;3.08;;;;;;;;;;5045494;28;20021;-50
2022/05/15 03:23:58;;;;;;;7.03;3.00;;;;;;;;;;5037108;28;20387;-50
2022/05/15 03:26:25;;;;;;;6.55;2.95;;;;;;;;;;5044960;28;20021;-51
2022/05/15 03:28:51;;;;;;;5.32;2.88;;;;;;;;;;5036562;28;20074;-52
2022/05/15 03:31:17;;;;;;;6.15;3.35;;;;;;;;;;5038865;28;20029;-53
2022/05/15 03:33:43;;;;;;;5.75;3.30;;;;;;;;;;5047098;28;20533;-51
2022/05/15 03:36:12;;;;;;;5.93;2.80;;;;;;;;;;5044625;28;20037;-51
2022/05/15 03:38:39;;;;;;;4.53;2.55;;;;;;;;;;5048273;28;20021;-52
2022/05/15 03:41:05;;;;;;;4.30;2.92;;;;;;;;;;5044161;28;20021;-53
2022/05/15 03:43:31;;;;;;;5.32;2.72;;;;;;;;;;5049071;28;20028;-51
2022/05/15 03:45:57;;;;;;;6.65;3.28;;;;;;;;;;5057395;28;20028;-52
2022/05/15 03:48:23;;;;;;;5.35;3.33;;;;;;;;;;5042570;28;20112;-49
2022/05/15 03:50:49;;;;;;;6.60;3.13;;;;;;;;;;5056224;28;20032;-51
2022/05/15 03:53:15;;;;;;;11.15;2.97;;;;;;;;;;5047036;28;20052;-50
2022/05/15 03:55:41;;;;;;;8.05;3.53;;;;;;;;;;5048222;28;20025;-52
2022/05/15 03:58:07;;;;;;;7.10;3.00;;;;;;;;;;5050744;28;20096;-49
2022/05/15 04:00:34;;;;;;;8.00;3.20;;;;;;;;;;5048416;28;20048;-52
2022/05/15 04:03:00;;;;;;;6.13;3.05;;;;;;;;;;5057225;28;20079;-52
2022/05/15 04:05:27;;;;;;;4.30;2.85;;;;;;;;;;5050476;28;20064;-49
2022/05/15 04:07:53;;;;;;;5.40;3.28;;;;;;;;;;5049990;28;20031;-51
2022/05/15 04:10:21;;;;;;;5.05;3.08;;;;;;;;;;5056016;28;20025;-50
2022/05/15 04:12:47;;;;;;;8.02;3.20;;;;;;;;;;5045022;28;20033;-50
2022/05/15 04:15:13;;;;;;;6.15;2.70;;;;;;;;;;5045394;28;20094;-53
2022/05/15 04:17:47;;;;;;;7.15;3.33;;;;;;;;;;5049477;28;20100;-52
2022/05/15 04:20:14;;;;;;;9.05;2.85;;;;;;;;;;5056258;28;20025;-52
2022/05/15 04:22:40;;;;;;;8.00;2.95;;;;;;;;;;5042909;28;20049;-54
2022/05/15 04:25:06;;;;;;;6.82;2.83;;;;;;;;;;5062153;28;20435;-51
2022/05/15 04:27:33;;;;;;;7.20;3.25;;;;;;;;;;5052881;28;20045;-51
2022/05/15 04:29:59;;;;;;;5.63;3.03;;;;;;;;;;5047614;28;20041;-52
2022/05/15 04:32:25;;;;;;;5.78;2.92;;;;;;;;;;5046185;28;20120;-53
2022/05/15 04:34:51;;;;;;;8.13;2.78;;;;;;;;;;5048529;28;20028;-51
2022/05/15 04:37:17;;;;;;;6.65;2.60;;;;;;;;;;5045600;28;20025;-52
2022/05/15 04:39:43;;;;;;;8.75;3.22;;;;;;;;;;5057616;28;20079;-52
2022/05/15 04:42:09;;;;;;;5.95;2.67;;;;;;;;;;5049545;28;20557;-52
2022/05/15 04:44:35;;;;;;;8.20;2.83;;;;;;;;;;5040705;28;20033;-52
2022/05/15 04:47:01;;;;;;;5.63;2.45;;;;;;;;;;5054591;28;20130;-54
2022/05/15 04:49:27;;;;;;;5.47;2.95;;;;;;;;;;5050302;28;20037;-50
2022/05/15 04:51:53;;;;;;;5.15;3.05;;;;;;;;;;5044583;28;20033;-52
2022/05/15 04:54:19;;;;;;;7.45;2.78;;;;;;;;;;5050021;28;20032;-51
2022/05/15 04:56:45;;;;;;;6.28;2.78;;;;;;;;;;5044618;28;20021;-52
2022/05/15 04:59:11;;;;;;;5.40;2.70;;;;;;;;;;5041961;28;20040;-54
2022/05/15 05:01:37;;;;;;;4.57;2.88;;;;;;;;;;5054085;28;20113;-52
2022/05/15 05:04:03;;;;;;;5.40;2.97;;;;;;;;;;5057410;28;20029;-53
2022/05/15 05:06:29;;;;;;;8.45;2.97;;;;;;;;;;5051192;28;20037;-52
2022/05/15 05:08:55;;;;;;;6.05;2.78;;;;;;;;;;5050692;28;20566;-53
2022/05/15 05:11:22;;;;;;;5.63;2.88;;;;;;;;;;5062072;28;20445;-52
2022/05/15 05:13:48;;;;;;;5.60;3.10;;;;;;;;;;5047951;28;20559;-53
2022/05/15 05:16:14;;;;;;;5.90;3.30;;;;;;;;;;5038649;28;20048;-54
2022/05/15 05:18:40;;;;;;;6.25;2.70;;;;;;;;;;5044862;28;20029;-51
2022/05/15 05:21:06;;;;;;;6.18;2.90;;;;;;;;;;5048996;28;20021;-52
2022/05/15 05:23:33;;;;;;;7.78;2.85;;;;;;;;;;5041852;28;20125;-51
2022/05/15 05:25:59;;;;;;;4.72;2.30;;;;;;;;;;5049384;28;20033;-55
2022/05/15 05:28:25;;;;;;;8.50;2.60;;;;;;;;;;5052575;28;20036;-51
2022/05/15 05:30:52;;;;;;;7.00;2.65;;;;;;;;;;5055172;28;20048;-52
2022/05/15 05:33:18;;;;;;;10.77;2.13;;;;;;;;;;5042981;28;20045;-53
2022/05/15 05:35:44;;;;;;;6.22;2.08;;;;;;;;;;5040885;28;20070;-53
2022/05/15 05:38:11;;;;;;;5.40;2.17;;;;;;;;;;5052042;28;20467;-53
2022/05/15 05:40:37;;;;;;;6.60;1.52;;;;;;;;;;5048822;28;20020;-50
2022/05/15 05:43:03;;;;;;;7.57;2.08;;;;;;;;;;5044672;28;20113;-54
2022/05/15 05:45:29;;;;;;;6.63;1.60;;;;;;;;;;5049146;28;20120;-52
2022/05/15 05:47:55;;;;;;;5.38;1.52;;;;;;;;;;5051874;28;20575;-53
2022/05/15 05:50:23;;;;;;;3.72;1.77;;;;;;;;;;5058204;28;20097;-53
2022/05/15 05:52:49;;;;;;;4.53;1.13;;;;;;;;;;5053290;28;20045;-54
2022/05/15 05:55:16;;;;;;;5.60;1.15;;;;;;;;;;5052016;28;20080;-54
2022/05/15 05:57:43;;;;;;;2.72;1.48;;;;;;;;;;5045315;28;20143;-53
2022/05/15 06:00:11;;;;;;;3.30;1.50;;;;;;;;;;5047412;28;20154;-53
2022/05/15 06:02:37;;;;;;;3.63;1.50;;;;;;;;;;5045735;28;20064;-54
2022/05/15 06:05:03;;;;;;;5.88;1.40;;;;;;;;;;5048264;28;20101;-53
2022/05/15 06:07:29;;;;;;;2.85;1.10;;;;;;;;;;5048790;28;20072;-55
2022/05/15 06:09:55;;;;;;;3.60;1.27;;;;;;;;;;5052898;28;20037;-54
2022/05/15 06:12:23;;;;;;;4.57;1.65;;;;;;;;;;5038011;28;20032;-51
2022/05/15 06:14:49;;;;;;;7.43;1.30;;;;;;;;;;5037504;28;20025;-51
2022/05/15 06:17:19;;;;;;;4.47;1.45;;;;;;;;;;5039050;28;20021;-54
2022/05/15 06:19:45;;;;;;;4.32;1.10;;;;;;;;;;5042449;28;20098;-51
2022/05/15 06:22:11;;;;;;;6.63;1.33;;;;;;;;;;5042379;28;20052;-53
2022/05/15 06:24:37;;;;;;;3.80;1.10;;;;;;;;;;5054108;28;20083;-55
2022/05/15 06:27:03;;;;;;;8.13;1.77;;;;;;;;;;5046496;28;20037;-52
2022/05/15 06:29:30;;;;;;;2.72;1.17;;;;;;;;;;5045190;28;20538;-52
2022/05/15 06:31:56;;;;;;;4.53;0.95;;;;;;;;;;5037733;28;20032;-55
2022/05/15 06:34:22;;;;;;;4.03;1.20;;;;;;;;;;5046687;28;20104;-53
2022/05/15 06:36:48;;;;;;;3.05;1.10;;;;;;;;;;5039227;28;20124;-53
2022/05/15 06:39:14;;;;;;;9.77;2.03;;;;;;;;;;5056698;28;20032;-55
2022/05/15 06:41:40;;;;;;;5.43;1.40;;;;;;;;;;5050679;28;20027;-54
2022/05/15 06:44:07;;;;;;;4.75;1.27;;;;;;;;;;5047561;28;20018;-54
2022/05/15 06:46:33;;;;;;;6.28;1.00;;;;;;;;;;5040558;28;20497;-53
2022/05/15 06:48:59;;;;;;;2.53;1.00;;;;;;;;;;5041462;28;20117;-52
2022/05/15 06:51:26;;;;;;;3.17;0.95;;;;;;;;;;5056368;28;20029;-53
2022/05/15 06:53:53;;;;;;;3.58;1.00;;;;;;;;;;5042768;28;20709;-53
2022/05/15 06:59:04;;;;;;;4.47;0.90;;;;;;;;;;5043406;28;20082;-54
2022/05/15 07:01:31;;;;;;;2.70;1.17;;;;;;;;;;5040127;28;20369;-56
2022/05/15 07:03:57;;;;;;;3.70;0.93;;;;;;;;;;5035918;28;20025;-54
2022/05/15 07:06:23;;;;;;;3.95;1.10;;;;;;;;;;5044315;28;20040;-54
2022/05/15 07:08:49;;;;;;;3.90;1.17;;;;;;;;;;5043891;28;20034;-55
2022/05/15 07:11:16;;;;;;;5.97;0.75;;;;;;;;;;5048898;28;20476;-52
2022/05/15 07:13:42;;;;;;;2.50;0.95;;;;;;;;;;5044375;28;20037;-54
2022/05/15 07:16:09;;;;;;;3.75;0.95;;;;;;;;;;5044888;28;20033;-55
2022/05/15 07:18:36;;;;;;;2.75;0.82;;;;;;;;;;5052781;28;20401;-53
2022/05/15 07:21:02;;;;;;;4.40;1.10;;;;;;;;;;5049533;28;20017;-56
2022/05/15 07:23:28;;;;;;;5.95;0.88;;;;;;;;;;5059664;28;20425;-54
2022/05/15 07:25:55;;;;;;;5.25;0.65;;;;;;;;;;5040633;28;20025;-54
2022/05/15 07:28:21;;;;;;;2.20;0.82;;;;;;;;;;5053104;28;20025;-55
2022/05/15 07:30:48;;;;;;;4.90;0.88;;;;;;;;;;5055265;28;20053;-55
2022/05/15 07:33:14;;;;;;;5.00;1.02;;;;;;;;;;5052698;28;20502;-54
2022/05/15 07:35:40;;;;;;;3.20;0.90;;;;;;;;;;5057769;28;20033;-52
2022/05/15 07:38:06;;;;;;;2.47;0.65;;;;;;;;;;5042458;28;20492;-55
2022/05/15 07:40:32;;;;;;;3.75;0.80;;;;;;;;;;5051547;28;20544;-54
2022/05/15 07:42:58;;;;;;;5.35;1.13;;;;;;;;;;5045155;28;20025;-53
2022/05/15 07:45:24;;;;;;;3.67;0.90;;;;;;;;;;5045804;28;20033;-52
2022/05/15 07:47:50;;;;;;;2.90;0.88;;;;;;;;;;5046513;28;20033;-54
2022/05/15 07:50:16;;;;;;;4.90;1.00;;;;;;;;;;5043544;28;20033;-52
2022/05/15 07:52:42;;;;;;;6.60;0.90;;;;;;;;;;5042202;28;20129;-55
2022/05/15 07:55:08;;;;;;;4.03;0.70;;;;;;;;;;5039058;28;20025;-56
2022/05/15 07:57:34;;;;;;;5.25;0.80;;;;;;;;;;5059425;28;20071;-54
2022/05/15 08:00:03;;;;;;;1.65;1.02;;;;;;;;;;5050614;28;20433;-55
2022/05/15 08:02:29;;;;;;;5.65;1.40;;;;;;;;;;5045396;28;20041;-54
2022/05/15 08:10:24;;;;;;;4.90;1.40;;;;;;;;;;5040967;28;20091;-54
2022/05/15 08:12:50;;;;;;;2.75;0.95;;;;;;;;;;5040147;28;20033;-54
2022/05/15 08:15:17;;;;;;;3.72;1.10;;;;;;;;;;5036389;28;20036;-55
2022/05/15 08:17:42;;;;;;;2.65;1.00;;;;;;;;;;5037553;28;20028;-55
2022/05/15 08:25:42;;;;;;;7.40;0.93;;;;;;;;;;5045349;28;20126;-56
2022/05/15 08:28:08;;;;;;;4.80;1.00;;;;;;;;;;5045546;28;20586;-55
2022/05/15 08:30:34;;;;;;;1.80;0.52;;;;;;;;;;5041042;28;20029;-56
2022/05/15 08:33:00;;;;;;;2.53;0.98;;;;;;;;;;5039433;28;20037;-55
2022/05/15 08:35:27;;;;;;;5.60;0.88;;;;;;;;;;5043705;28;20049;-55
2022/05/15 08:37:53;;;;;;;3.75;0.88;;;;;;;;;;5051865;28;20039;-53
2022/05/15 08:40:23;;;;;;;5.15;1.23;;;;;;;;;;5045220;28;20029;-54
2022/05/15 08:42:56;;;;;;;1.23;0.52;;;;;;;;;;5042618;28;20111;-56
2022/05/15 08:45:24;;;;;;;2.45;0.80;;;;;;;;;;5045782;28;20503;-55
2022/05/15 08:47:54;;;;;;;2.58;0.57;;;;;;;;;;5041082;28;20061;-54
2022/05/15 08:50:24;;;;;;;4.80;0.98;;;;;;;;;;5049025;28;20033;-51
2022/05/15 08:52:58;;;;;;;3.33;0.82;;;;;;;;;;5044518;28;20052;-54
2022/05/15 08:55:42;;;;;;;3.85;1.05;;;;;;;;;;5049400;28;20112;-55
2022/05/15 08:58:08;;;;;;;4.78;0.88;;;;;;;;;;5044829;28;20032;-55
2022/05/15 09:00:38;;;;;;;2.13;0.80;;;;;;;;;;5049622;28;20395;-55
2022/05/15 09:03:09;;;;;;;2.35;0.88;;;;;;;;;;5048057;28;20056;-56
2022/05/15 09:05:35;;;;;;;2.63;0.77;;;;;;;;;;5041956;28;20057;-53
2022/05/15 09:08:01;;;;;;;4.88;0.85;;;;;;;;;;5047389;28;20095;-53
2022/05/15 09:10:37;;;;;;;3.15;0.77;;;;;;;;;;5042964;28;20483;-55
2022/05/15 09:13:07;;;;;;;3.50;1.00;;;;;;;;;;5046305;28;20051;-55
2022/05/15 09:15:33;;;;;;;3.75;0.93;;;;;;;;;;5050067;28;20120;-54
2022/05/15 09:18:03;;;;;;;1.23;0.50;;;;;;;;;;5047225;28;20059;-54
2022/05/15 09:20:47;;;;;;;2.58;0.93;;;;;;;;;;5044564;28;20489;-53
2022/05/15 09:23:25;;;;;;;5.10;0.98;;;;;;;;;;5041451;28;20029;-54
2022/05/15 09:25:55;;;;;;;1.80;0.57;;;;;;;;;;5054715;28;20036;-54
2022/05/15 09:28:22;;;;;;;4.32;1.63;;;;;;;;;;5048110;28;20037;-56
2022/05/15 09:30:49;;;;;;;2.15;0.75;;;;;;;;;;5052619;28;20025;-56
2022/05/15 09:33:39;;;;;;;1.88;0.65;;;;;;;;;;5041928;28;20040;-55
2022/05/15 09:36:19;;;;;;;0.88;0.60;;;;;;;;;;5042365;28;20457;-53
2022/05/15 09:38:45;;;;;;;2.33;0.60;;;;;;;;;;5054059;28;20033;-56
2022/05/15 09:43:58;;;;;;;3.17;0.75;;;;;;;;;;5046924;28;20045;-55
2022/05/15 09:46:25;;;;;;;3.10;0.60;;;;;;;;;;5044981;28;20032;-56
2022/05/15 09:49:05;;;;;;;2.40;0.65;;;;;;;;;;5069269;28;20194;-56
2022/05/15 09:51:52;;;;;;;3.28;0.90;;;;;;;;;;5039437;28;20029;-55
2022/05/15 09:54:34;;;;;;;2.22;0.73;;;;;;;;;;5051601;28;20056;-55
2022/05/15 09:57:14;;;;;;;2.20;0.80;;;;;;;;;;5054702;28;20036;-53
2022/05/15 09:59:41;;;;;;;2.47;0.80;;;;;;;;;;5041975;28;20035;-54
2022/05/15 10:02:16;;;;;;;4.63;0.63;;;;;;;;;;5039826;28;20035;-55
2022/05/15 10:04:46;;;;;;;2.45;0.70;;;;;;;;;;5051881;28;20024;-55
2022/05/15 10:07:27;;;;;;;3.40;0.60;;;;;;;;;;5051186;28;20115;-54
2022/05/15 10:09:54;;;;;;;1.17;0.50;;;;;;;;;;5049793;28;20107;-55
2022/05/15 10:12:28;;;;;;;2.65;0.63;;;;;;;;;;5042951;28;20477;-56
2022/05/15 10:14:55;;;;;;;2.63;0.65;;;;;;;;;;5045687;28;20087;-54
2022/05/15 10:17:23;;;;;;;1.88;0.50;;;;;;;;;;5039692;28;20481;-55
2022/05/15 10:19:52;;;;;;;2.60;0.55;;;;;;;;;;5042306;28;20033;-53
2022/05/15 10:22:36;;;;;;;1.33;0.40;;;;;;;;;;5048857;28;20729;-54
2022/05/15 10:25:12;;;;;;;2.95;0.70;;;;;;;;;;5046295;28;20032;-55
2022/05/15 10:27:39;;;;;;;1.45;0.60;;;;;;;;;;5050529;28;20116;-54
2022/05/15 10:30:12;;;;;;;3.88;0.75;;;;;;;;;;5042256;28;20481;-54
2022/05/15 10:32:43;;;;;;;1.83;0.82;;;;;;;;;;5048229;28;20074;-55
2022/05/15 10:35:12;;;;;;;1.92;0.60;;;;;;;;;;5049008;28;20453;-52
2022/05/15 10:37:44;;;;;;;5.32;0.63;;;;;;;;;;5045700;28;20074;-54
2022/05/15 10:40:18;;;;;;;2.50;0.40;;;;;;;;;;5050060;28;20473;-55
2022/05/15 10:42:44;;;;;;;1.98;0.65;;;;;;;;;;5048464;28;20126;-53
2022/05/15 10:45:22;;;;;;;1.38;0.40;;;;;;;;;;5047330;28;20483;-55
2022/05/15 10:48:00;;;;;;;4.00;0.70;;;;;;;;;;5045046;28;20038;-54
2022/05/15 10:50:29;;;;;;;1.55;0.70;;;;;;;;;;5043499;28;20119;-54
2022/05/15 10:57:21;;;;;;;4.45;0.80;;;;;;;;;;5045221;28;20128;-55
2022/05/15 10:59:00;;;;;;;1.23;0.50;;;;;;;;;;5044363;28;20071;-55
2022/05/15 11:01:52;;;;;;;4.13;0.70;;;;;;;;;;5049683;28;20100;-55
2022/05/15 11:04:30;;;;;;;1.35;0.70;;;;;;;;;;5044926;28;20037;-55
2022/05/15 11:07:14;;;;;;;5.25;0.75;;;;;;;;;;5050630;28;20033;-54
2022/05/15 11:09:53;;;;;;;3.47;0.57;;;;;;;;;;5050765;28;20033;-53
2022/05/15 11:12:31;;;;;;;3.15;0.70;;;;;;;;;;5050582;28;20025;-54
2022/05/15 11:15:09;;;;;;;1.45;0.43;;;;;;;;;;5034885;28;20040;-54
2022/05/15 11:17:42;;;;;;;1.02;0.40;;;;;;;;;;5037731;28;20439;-53
2022/05/15 11:20:13;;;;;;;1.10;0.70;;;;;;;;;;5039585;28;20098;-56
2022/05/15 11:22:49;;;;;;;2.05;0.50;;;;;;;;;;5051184;28;20082;-55
2022/05/15 11:25:20;;;;;;;4.93;0.60;;;;;;;;;;5040537;28;20067;-55
2022/05/15 11:27:51;;;;;;;1.05;0.60;;;;;;;;;;5050334;28;20025;-54
2022/05/15 11:30:17;;;;;;;1.25;0.40;;;;;;;;;;5046767;28;20495;-56
2022/05/15 11:32:57;;;;;;;3.35;0.63;;;;;;;;;;5047492;28;20029;-56
2022/05/15 11:35:29;;;;;;;2.35;0.70;;;;;;;;;;5041952;28;20033;-56
2022/05/15 11:37:58;;;;;;;1.85;0.35;;;;;;;;;;5047885;28;20032;-55
2022/05/15 11:40:35;;;;;;;1.08;0.50;;;;;;;;;;5041964;28;20025;-56
2022/05/15 11:43:20;;;;;;;2.25;0.40;;;;;;;;;;5049421;28;20029;-56
2022/05/15 11:45:51;;;;;;;1.05;0.45;;;;;;;;;;5042748;28;20087;-56
2022/05/15 11:48:17;;;;;;;1.33;0.40;;;;;;;;;;5046399;28;20422;-57
2022/05/15 11:50:55;;;;;;;1.58;0.55;;;;;;;;;;5040319;28;20467;-55
2022/05/15 11:53:26;;;;;;;1.50;0.50;;;;;;;;;;5043160;28;20521;-55
2022/05/15 11:55:53;;;;;;;0.60;0.30;;;;;;;;;;5044876;28;20440;-56
2022/05/15 11:58:32;;;;;;;3.03;0.52;;;;;;;;;;5050858;28;20538;-54
2022/05/15 12:00:59;;;;;;;2.28;0.57;;;;;;;;;;5052195;28;20547;-55
2022/05/15 12:03:41;;;;;;;1.50;0.68;;;;;;;;;;5050160;28;20391;-55
2022/05/15 12:06:08;;;;;;;1.80;0.50;;;;;;;;;;5053284;28;20056;-54
2022/05/15 12:08:37;;;;;;;1.17;0.50;;;;;;;;;;5049758;28;20112;-55
2022/05/15 12:11:18;;;;;;;1.83;0.57;;;;;;;;;;5049487;28;20029;-56
2022/05/15 12:13:45;;;;;;;0.70;0.40;;;;;;;;;;5052900;28;20116;-56
2022/05/15 12:16:32;;;;;;;0.70;0.20;;;;;;;;;;5053614;28;20025;-55
2022/05/15 12:19:20;;;;;;;1.13;0.45;;;;;;;;;;5053179;28;20392;-56
2022/05/15 12:21:47;;;;;;;3.35;0.40;;;;;;;;;;5049737;28;20104;-54
2022/05/15 12:24:29;;;;;;;3.67;0.52;;;;;;;;;;5052536;28;20056;-55
2022/05/15 12:27:10;;;;;;;1.40;0.77;;;;;;;;;;5053022;28;20056;-55
2022/05/15 12:29:42;;;;;;;2.65;0.43;;;;;;;;;;5041628;28;20047;-54
2022/05/15 12:32:10;;;;;;;0.70;0.30;;;;;;;;;;5057437;28;20029;-54
2022/05/15 12:34:42;;;;;;;1.08;0.30;;;;;;;;;;5051990;28;20044;-54
2022/05/15 12:37:10;;;;;;;0.88;0.38;;;;;;;;;;5049781;28;20049;-56
2022/05/15 12:39:38;;;;;;;1.75;0.40;;;;;;;;;;5039868;28;20043;-55
2022/05/15 12:42:09;;;;;;;0.70;0.28;;;;;;;;;;5044328;28;20021;-55
2022/05/15 12:44:36;;;;;;;0.55;0.28;;;;;;;;;;5038277;28;20022;-53
2022/05/15 12:47:05;;;;;;;2.95;0.40;;;;;;;;;;5046564;28;20139;-56
2022/05/15 12:49:32;;;;;;;2.70;0.25;;;;;;;;;;5045050;28;20112;-56
2022/05/15 12:52:19;;;;;;;2.03;0.30;;;;;;;;;;5044553;28;20100;-54
2022/05/15 12:54:46;;;;;;;1.23;0.40;;;;;;;;;;5050549;28;20020;-56
2022/05/15 12:57:16;;;;;;;2.38;0.55;;;;;;;;;;5043008;28;20051;-53
2022/05/15 12:59:46;;;;;;;1.80;0.40;;;;;;;;;;5053276;28;20028;-55
2022/05/15 13:02:29;;;;;;;3.17;0.30;;;;;;;;;;5039416;28;20078;-55
2022/05/15 13:04:56;;;;;;;0.85;0.30;;;;;;;;;;5048917;28;20036;-53
2022/05/15 13:07:24;;;;;;;1.33;0.30;;;;;;;;;;5049665;28;20495;-55
2022/05/15 13:09:57;;;;;;;1.58;0.40;;;;;;;;;;5051971;28;20047;-55
2022/05/15 13:12:24;;;;;;;3.38;0.40;;;;;;;;;;5045556;28;20029;-55
2022/05/15 13:14:50;;;;;;;1.00;0.40;;;;;;;;;;5050101;28;20514;-56
2022/05/15 13:17:28;;;;;;;2.70;0.45;;;;;;;;;;5037847;28;20021;-55
2022/05/15 13:19:55;;;;;;;0.80;0.40;;;;;;;;;;5051942;28;20063;-55
2022/05/15 13:22:26;;;;;;;1.08;0.35;;;;;;;;;;5042214;28;20546;-55
2022/05/15 13:24:56;;;;;;;2.47;0.38;;;;;;;;;;5062785;28;20550;-55
2022/05/15 13:27:22;;;;;;;0.93;0.40;;;;;;;;;;5048393;28;20044;-55
2022/05/15 13:29:48;;;;;;;0.75;0.20;;;;;;;;;;5050013;28;20108;-56
2022/05/15 13:32:14;;;;;;;1.75;0.50;;;;;;;;;;5032219;28;20083;-56
2022/05/15 13:34:41;;;;;;;1.55;0.45;;;;;;;;;;5031454;28;20507;-56
2022/05/15 13:37:26;;;;;;;1.08;0.40;;;;;;;;;;5051867;28;20048;-56
2022/05/15 13:45:26;;;;;;;1.38;0.43;;;;;;;;;;5042102;28;20039;-54
2022/05/15 13:48:00;;;;;;;1.90;0.52;;;;;;;;;;5040760;28;20031;-54
2022/05/15 13:50:35;;;;;;;0.50;0.30;;;;;;;;;;5048972;28;20108;-54
2022/05/15 13:53:20;;;;;;;0.77;0.40;;;;;;;;;;5050734;28;20052;-53
2022/05/15 13:55:47;;;;;;;1.38;0.40;;;;;;;;;;5060237;28;20056;-55
2022/05/15 13:58:12;;;;;;;0.80;0.35;;;;;;;;;;5038360;28;20025;-55
2022/05/15 14:00:41;;;;;;;7.13;0.40;;;;;;;;;;5057468;28;20078;-54
2022/05/15 14:03:08;;;;;;;1.15;0.28;;;;;;;;;;5038498;28;20112;-54
2022/05/15 14:05:34;;;;;;;;;;;;;;;;;;5044360;28;20026;-55
2022/05/15 14:08:15;;;;;;;1.58;0.30;;;;;;;;;;5049124;28;19935;-53
2022/05/15 14:10:41;;;;;;;;;;;;;;;;;;5042663;28;20543;-53
2022/05/15 14:13:08;;;;;;;;;;;;;;;;;;5057005;28;19999;-54
2022/05/15 14:15:34;;;;;;;;;;;;;;;;;;5049543;28;19923;-54
2022/05/15 14:18:01;;;;;;;;;;;;;;;;;;5036771;28;19916;-54
2022/05/15 14:20:26;;;;;;;;;;;;;;;;;;5052710;28;19916;-54
2022/05/15 14:22:53;;;;;;;;;;;;;;;;;;5045982;28;19952;-53
2022/05/15 14:25:19;;;;;;;;;;;;;;;;;;5048315;28;20369;-53
2022/05/15 14:27:45;;;;;;;1.88;0.30;;;;;;;;;;5047246;28;20039;-54
2022/05/15 14:30:11;;;;;;;2.28;0.43;;;;;;;;;;5050021;28;20488;-54
2022/05/15 14:32:37;;;;;;;1.25;0.45;;;;;;;;;;5046076;28;20036;-54
2022/05/15 14:35:06;;;;;;;4.15;0.40;;;;;;;;;;5051057;28;20028;-54
2022/05/15 14:37:32;;;;;;;0.70;0.20;;;;;;;;;;5038202;28;20025;-52
2022/05/15 14:39:58;;;;;;;1.80;0.30;;;;;;;;;;5047162;28;20048;-52
2022/05/15 14:42:27;;;;;;;1.05;0.30;;;;;;;;;;5041581;28;20023;-54
2022/05/15 14:44:57;;;;;;;1.05;0.25;;;;;;;;;;5041218;28;20029;-53
2022/05/15 14:47:24;;;;;;;0.20;0.10;;;;;;;;;;5041698;28;20025;-53
2022/05/15 14:49:52;;;;;;;1.35;0.35;;;;;;;;;;5041010;28;20090;-53
2022/05/15 14:52:21;;;;;;;1.50;0.40;;;;;;;;;;5046485;28;20044;-54
2022/05/15 14:54:47;;;;;;;0.73;0.30;;;;;;;;;;5039099;28;20032;-53
2022/05/15 14:57:13;;;;;;;1.27;0.17;;;;;;;;;;5042164;28;20536;-51
2022/05/15 14:59:43;;;;;;;2.20;0.57;;;;;;;;;;5036478;28;20060;-52
2022/05/15 15:02:09;;;;;;;0.98;0.30;;;;;;;;;;5047537;28;20021;-56
2022/05/15 15:04:35;;;;;;;2.33;0.57;;;;;;;;;;5057644;28;20534;-54
2022/05/15 15:07:02;;;;;;;1.63;0.30;;;;;;;;;;5041224;28;20060;-53
2022/05/15 15:09:28;;;;;;;2.35;0.30;;;;;;;;;;5034436;28;20434;-52
2022/05/15 15:11:56;;;;;;;1.20;0.47;;;;;;;;;;5035598;28;20075;-56
2022/05/15 15:14:22;;;;;;;1.90;0.50;;;;;;;;;;5045561;28;20021;-55
2022/05/15 15:16:50;;;;;;;1.17;0.20;;;;;;;;;;5035001;28;20138;-54
2022/05/15 15:19:18;;;;;;;0.77;0.30;;;;;;;;;;5041345;28;20127;-53
2022/05/15 15:21:44;;;;;;;0.90;0.25;;;;;;;;;;5052467;28;20033;-55
2022/05/15 15:24:11;;;;;;;0.68;0.25;;;;;;;;;;5041412;28;20033;-56